sensor_id;sensor_type;location;lat;lon;timestamp;pressure;altitude;pressure_sealevel;temperature;humidity
57068;BME280;43391;47.448;18.904;2023-05-11T00:01:57;99791.00;;;12.13;65.77
57068;BME280;43391;47.448;18.904;2023-05-11T00:04:25;99794.88;;;12.06;66.07
57068;BME280;43391;47.448;18.904;2023-05-11T00:06:50;99783.84;;;12.01;65.97
57068;BME280;43391;47.448;18.904;2023-05-11T00:09:16;99797.09;;;11.96;66.47
57068;BME280;43391;47.448;18.904;2023-05-11T00:11:42;99788.69;;;11.91;66.78
57068;BME280;43391;47.448;18.904;2023-05-11T00:14:07;99787.84;;;11.90;67.12
57068;BME280;43391;47.448;18.904;2023-05-11T00:16:33;99785.41;;;11.87;67.57
57068;BME280;43391;47.448;18.904;2023-05-11T00:18:58;99789.09;;;11.83;67.64
57068;BME280;43391;47.448;18.904;2023-05-11T00:21:23;99787.31;;;11.83;67.56
57068;BME280;43391;47.448;18.904;2023-05-11T00:23:49;99783.13;;;11.81;67.70
57068;BME280;43391;47.448;18.904;2023-05-11T00:26:15;99785.81;;;11.79;68.50
57068;BME280;43391;47.448;18.904;2023-05-11T00:28:40;99789.72;;;11.70;69.31
57068;BME280;43391;47.448;18.904;2023-05-11T00:31:05;99788.19;;;11.66;69.89
57068;BME280;43391;47.448;18.904;2023-05-11T00:33:31;99785.94;;;11.60;69.98
57068;BME280;43391;47.448;18.904;2023-05-11T00:35:56;99785.19;;;11.58;70.83
57068;BME280;43391;47.448;18.904;2023-05-11T00:38:21;99784.78;;;11.48;71.18
57068;BME280;43391;47.448;18.904;2023-05-11T00:40:48;99786.56;;;11.48;71.70
57068;BME280;43391;47.448;18.904;2023-05-11T00:43:13;99777.31;;;11.42;71.56
57068;BME280;43391;47.448;18.904;2023-05-11T00:45:39;99780.16;;;11.37;71.33
57068;BME280;43391;47.448;18.904;2023-05-11T00:48:04;99769.91;;;11.34;71.36
57068;BME280;43391;47.448;18.904;2023-05-11T00:50:30;99780.31;;;11.34;71.92
57068;BME280;43391;47.448;18.904;2023-05-11T00:52:56;99775.97;;;11.35;71.47
57068;BME280;43391;47.448;18.904;2023-05-11T00:55:22;99780.09;;;11.39;71.23
57068;BME280;43391;47.448;18.904;2023-05-11T00:57:47;99778.31;;;11.39;71.41
57068;BME280;43391;47.448;18.904;2023-05-11T01:00:13;99777.63;;;11.36;71.91
57068;BME280;43391;47.448;18.904;2023-05-11T01:02:39;99771.63;;;11.35;72.76
57068;BME280;43391;47.448;18.904;2023-05-11T01:05:05;99771.69;;;11.34;73.14
57068;BME280;43391;47.448;18.904;2023-05-11T01:07:39;99773.59;;;11.30;73.46
57068;BME280;43391;47.448;18.904;2023-05-11T01:10:22;99771.69;;;11.34;73.24
57068;BME280;43391;47.448;18.904;2023-05-11T01:15:45;99772.44;;;11.36;73.49
57068;BME280;43391;47.448;18.904;2023-05-11T01:18:35;99773.38;;;11.35;73.24
57068;BME280;43391;47.448;18.904;2023-05-11T01:21:03;99765.03;;;11.28;73.57
57068;BME280;43391;47.448;18.904;2023-05-11T01:29:27;99768.47;;;11.28;75.35
57068;BME280;43391;47.448;18.904;2023-05-11T01:31:57;99767.63;;;11.28;74.92
57068;BME280;43391;47.448;18.904;2023-05-11T01:34:27;99764.88;;;11.31;74.62
57068;BME280;43391;47.448;18.904;2023-05-11T01:36:56;99762.22;;;11.33;74.62
57068;BME280;43391;47.448;18.904;2023-05-11T01:39:30;99768.47;;;11.28;75.69
57068;BME280;43391;47.448;18.904;2023-05-11T01:41:58;99763.44;;;11.25;76.08
57068;BME280;43391;47.448;18.904;2023-05-11T01:44:30;99766.56;;;11.32;76.40
57068;BME280;43391;47.448;18.904;2023-05-11T01:46:59;99767.09;;;11.21;77.29
57068;BME280;43391;47.448;18.904;2023-05-11T01:49:26;99764.06;;;11.13;78.58
57068;BME280;43391;47.448;18.904;2023-05-11T01:51:53;99763.44;;;11.08;78.99
57068;BME280;43391;47.448;18.904;2023-05-11T01:54:19;99768.72;;;11.06;79.11
57068;BME280;43391;47.448;18.904;2023-05-11T01:56:46;99765.38;;;11.04;79.95
57068;BME280;43391;47.448;18.904;2023-05-11T01:59:13;99761.16;;;11.01;80.40
57068;BME280;43391;47.448;18.904;2023-05-11T02:01:41;99761.78;;;11.07;80.91
57068;BME280;43391;47.448;18.904;2023-05-11T02:04:08;99760.25;;;11.02;81.17
57068;BME280;43391;47.448;18.904;2023-05-11T02:06:34;99755.19;;;10.99;81.46
57068;BME280;43391;47.448;18.904;2023-05-11T02:09:01;99764.88;;;10.96;82.06
57068;BME280;43391;47.448;18.904;2023-05-11T02:11:28;99756.09;;;10.98;81.11
57068;BME280;43391;47.448;18.904;2023-05-11T02:13:56;99752.59;;;10.99;81.88
57068;BME280;43391;47.448;18.904;2023-05-11T02:16:23;99752.59;;;10.99;81.86
57068;BME280;43391;47.448;18.904;2023-05-11T02:18:50;99749.16;;;10.99;81.81
57068;BME280;43391;47.448;18.904;2023-05-11T02:21:17;99744.78;;;10.99;82.28
57068;BME280;43391;47.448;18.904;2023-05-11T02:23:44;99750.06;;;10.98;82.43
57068;BME280;43391;47.448;18.904;2023-05-11T02:26:12;99748.00;;;11.05;82.26
57068;BME280;43391;47.448;18.904;2023-05-11T02:28:39;99745.41;;;11.05;82.17
57068;BME280;43391;47.448;18.904;2023-05-11T02:31:08;99747.41;;;10.99;82.79
57068;BME280;43391;47.448;18.904;2023-05-11T02:33:42;99746.09;;;10.90;84.06
57068;BME280;43391;47.448;18.904;2023-05-11T02:36:09;99741.03;;;10.87;83.11
57068;BME280;43391;47.448;18.904;2023-05-11T02:38:39;99741.16;;;10.86;82.37
57068;BME280;43391;47.448;18.904;2023-05-11T02:41:11;99742.59;;;10.74;83.33
57068;BME280;43391;47.448;18.904;2023-05-11T02:43:43;99738.06;;;10.60;84.38
57068;BME280;43391;47.448;18.904;2023-05-11T02:46:12;99734.84;;;10.55;84.54
57068;BME280;43391;47.448;18.904;2023-05-11T02:48:41;99735.34;;;10.44;84.81
57068;BME280;43391;47.448;18.904;2023-05-11T02:51:10;99732.81;;;10.23;86.56
57068;BME280;43391;47.448;18.904;2023-05-11T02:53:39;99732.81;;;10.23;87.42
57068;BME280;43391;47.448;18.904;2023-05-11T02:56:05;99732.38;;;10.15;87.81
57068;BME280;43391;47.448;18.904;2023-05-11T02:58:31;99722.41;;;10.05;88.51
57068;BME280;43391;47.448;18.904;2023-05-11T03:00:58;99730.38;;;10.01;88.81
57068;BME280;43391;47.448;18.904;2023-05-11T03:03:24;99722.25;;;9.89;90.26
57068;BME280;43391;47.448;18.904;2023-05-11T03:05:49;99727.78;;;9.81;90.91
57068;BME280;43391;47.448;18.904;2023-05-11T03:08:15;99730.66;;;9.75;90.92
57068;BME280;43391;47.448;18.904;2023-05-11T03:10:41;99725.81;;;9.67;91.52
57068;BME280;43391;47.448;18.904;2023-05-11T03:13:07;99735.56;;;9.62;91.18
57068;BME280;43391;47.448;18.904;2023-05-11T03:15:34;99733.88;;;9.61;91.66
57068;BME280;43391;47.448;18.904;2023-05-11T03:18:02;99733.75;;;9.64;90.81
57068;BME280;43391;47.448;18.904;2023-05-11T03:20:27;99740.16;;;9.55;91.34
57068;BME280;43391;47.448;18.904;2023-05-11T03:22:54;99734.91;;;9.57;91.99
57068;BME280;43391;47.448;18.904;2023-05-11T03:25:20;99745.28;;;9.57;91.34
57068;BME280;43391;47.448;18.904;2023-05-11T03:27:49;99750.47;;;9.57;92.27
57068;BME280;43391;47.448;18.904;2023-05-11T03:30:16;99746.47;;;9.50;92.77
57068;BME280;43391;47.448;18.904;2023-05-11T03:32:42;99744.00;;;9.47;92.92
57068;BME280;43391;47.448;18.904;2023-05-11T03:35:07;99743.41;;;9.40;93.14
57068;BME280;43391;47.448;18.904;2023-05-11T03:37:35;99752.16;;;9.37;92.94
57068;BME280;43391;47.448;18.904;2023-05-11T03:40:02;99748.94;;;9.32;93.30
57068;BME280;43391;47.448;18.904;2023-05-11T03:42:29;99746.28;;;9.34;92.77
57068;BME280;43391;47.448;18.904;2023-05-11T03:44:55;99746.56;;;9.27;92.46
57068;BME280;43391;47.448;18.904;2023-05-11T03:47:25;99750.00;;;9.28;92.39
57068;BME280;43391;47.448;18.904;2023-05-11T03:49:52;99751.78;;;9.26;93.25
57068;BME280;43391;47.448;18.904;2023-05-11T03:52:19;99744.16;;;9.23;93.85
57068;BME280;43391;47.448;18.904;2023-05-11T03:54:45;99751.09;;;9.22;94.32
57068;BME280;43391;47.448;18.904;2023-05-11T03:57:11;99751.16;;;9.21;94.65
57068;BME280;43391;47.448;18.904;2023-05-11T03:59:38;99752.00;;;9.21;94.55
57068;BME280;43391;47.448;18.904;2023-05-11T04:02:04;99752.00;;;9.21;95.23
57068;BME280;43391;47.448;18.904;2023-05-11T04:04:29;99748.56;;;9.21;95.46
57068;BME280;43391;47.448;18.904;2023-05-11T04:06:56;99750.38;;;9.19;97.25
57068;BME280;43391;47.448;18.904;2023-05-11T04:09:21;99755.56;;;9.19;97.24
57068;BME280;43391;47.448;18.904;2023-05-11T04:11:47;99758.00;;;9.22;96.12
57068;BME280;43391;47.448;18.904;2023-05-11T04:14:12;99749.16;;;9.27;96.42
57068;BME280;43391;47.448;18.904;2023-05-11T04:16:38;99754.97;;;9.33;96.75
57068;BME280;43391;47.448;18.904;2023-05-11T04:19:03;99754.91;;;9.34;96.42
57068;BME280;43391;47.448;18.904;2023-05-11T04:21:28;99761.56;;;9.40;95.77
57068;BME280;43391;47.448;18.904;2023-05-11T04:23:54;99758.56;;;9.49;95.54
57068;BME280;43391;47.448;18.904;2023-05-11T04:26:20;99761.63;;;9.59;95.84
57068;BME280;43391;47.448;18.904;2023-05-11T04:28:45;99761.34;;;9.65;95.47
57068;BME280;43391;47.448;18.904;2023-05-11T04:31:11;99770.59;;;9.71;95.22
57068;BME280;43391;47.448;18.904;2023-05-11T04:33:36;99766.97;;;9.75;94.92
57068;BME280;43391;47.448;18.904;2023-05-11T04:36:02;99759.75;;;9.82;95.32
57068;BME280;43391;47.448;18.904;2023-05-11T04:38:29;99767.31;;;9.87;95.58
57068;BME280;43391;47.448;18.904;2023-05-11T04:40:55;99766.06;;;9.95;94.64
57068;BME280;43391;47.448;18.904;2023-05-11T04:43:20;99767.47;;;10.03;92.75
57068;BME280;43391;47.448;18.904;2023-05-11T04:45:47;99767.06;;;10.12;91.83
57068;BME280;43391;47.448;18.904;2023-05-11T04:48:13;99770.97;;;10.21;88.83
57068;BME280;43391;47.448;18.904;2023-05-11T04:50:39;99773.28;;;10.27;88.75
57068;BME280;43391;47.448;18.904;2023-05-11T04:53:04;99774.47;;;10.39;86.58
57068;BME280;43391;47.448;18.904;2023-05-11T04:55:30;99772.94;;;10.54;84.36
57068;BME280;43391;47.448;18.904;2023-05-11T04:57:55;99767.94;;;10.69;83.81
57068;BME280;43391;47.448;18.904;2023-05-11T05:00:21;99781.78;;;10.87;82.05
57068;BME280;43391;47.448;18.904;2023-05-11T05:02:46;99779.19;;;11.05;79.17
57068;BME280;43391;47.448;18.904;2023-05-11T05:05:11;99779.41;;;11.18;78.67
57068;BME280;43391;47.448;18.904;2023-05-11T05:07:37;99778.81;;;11.30;78.48
57068;BME280;43391;47.448;18.904;2023-05-11T05:10:02;99777.50;;;11.39;76.43
57068;BME280;43391;47.448;18.904;2023-05-11T05:12:30;99782.81;;;11.53;76.36
57068;BME280;43391;47.448;18.904;2023-05-11T05:14:56;99788.13;;;11.68;74.85
57068;BME280;43391;47.448;18.904;2023-05-11T05:17:21;99783.97;;;11.81;75.59
57068;BME280;43391;47.448;18.904;2023-05-11T05:19:47;99781.22;;;12.01;75.82
57068;BME280;43391;47.448;18.904;2023-05-11T05:22:12;99783.03;;;12.16;73.51
57068;BME280;43391;47.448;18.904;2023-05-11T05:24:37;99781.63;;;12.27;72.50
57068;BME280;43391;47.448;18.904;2023-05-11T05:27:03;99792.53;;;12.33;70.46
57068;BME280;43391;47.448;18.904;2023-05-11T05:29:28;99784.38;;;12.40;71.14
57068;BME280;43391;47.448;18.904;2023-05-11T05:31:53;99788.16;;;12.50;70.01
57068;BME280;43391;47.448;18.904;2023-05-11T05:34:19;99791.59;;;12.67;70.04
57068;BME280;43391;47.448;18.904;2023-05-11T05:36:44;99794.25;;;12.81;67.64
57068;BME280;43391;47.448;18.904;2023-05-11T05:39:10;99789.63;;;12.86;67.60
57068;BME280;43391;47.448;18.904;2023-05-11T05:41:36;99797.81;;;12.95;65.79
57068;BME280;43391;47.448;18.904;2023-05-11T05:44:02;99802.50;;;13.04;66.38
57068;BME280;43391;47.448;18.904;2023-05-11T05:46:27;99799.47;;;13.12;64.43
57068;BME280;43391;47.448;18.904;2023-05-11T05:48:53;99800.88;;;13.18;64.38
57068;BME280;43391;47.448;18.904;2023-05-11T05:51:18;99817.34;;;13.18;64.48
57068;BME280;43391;47.448;18.904;2023-05-11T05:53:44;99812.34;;;13.29;62.76
57068;BME280;43391;47.448;18.904;2023-05-11T05:56:09;99807.06;;;13.46;63.43
57068;BME280;43391;47.448;18.904;2023-05-11T05:58:35;99808.72;;;13.63;63.09
57068;BME280;43391;47.448;18.904;2023-05-11T06:01:00;99809.38;;;13.66;59.91
57068;BME280;43391;47.448;18.904;2023-05-11T06:03:25;99808.34;;;13.69;60.04
57068;BME280;43391;47.448;18.904;2023-05-11T06:05:51;99803.66;;;13.60;59.49
57068;BME280;43391;47.448;18.904;2023-05-11T06:08:16;99807.94;;;13.61;60.14
57068;BME280;43391;47.448;18.904;2023-05-11T06:10:41;99807.13;;;13.60;60.09
57068;BME280;43391;47.448;18.904;2023-05-11T06:13:07;99816.16;;;13.54;60.99
57068;BME280;43391;47.448;18.904;2023-05-11T06:15:32;99807.03;;;13.47;60.94
57068;BME280;43391;47.448;18.904;2023-05-11T06:17:58;99811.22;;;13.50;60.72
57068;BME280;43391;47.448;18.904;2023-05-11T06:20:23;99806.47;;;13.57;62.18
57068;BME280;43391;47.448;18.904;2023-05-11T06:22:49;99810.94;;;13.69;61.61
57068;BME280;43391;47.448;18.904;2023-05-11T06:25:14;99809.09;;;13.86;61.57
57068;BME280;43391;47.448;18.904;2023-05-11T06:27:40;99808.88;;;14.03;61.20
57068;BME280;43391;47.448;18.904;2023-05-11T06:30:06;99808.06;;;14.17;58.57
57068;BME280;43391;47.448;18.904;2023-05-11T06:32:32;99805.53;;;14.16;59.09
57068;BME280;43391;47.448;18.904;2023-05-11T06:34:58;99809.81;;;14.17;59.39
57068;BME280;43391;47.448;18.904;2023-05-11T06:37:23;99812.50;;;14.15;57.70
57068;BME280;43391;47.448;18.904;2023-05-11T06:39:48;99806.16;;;14.19;58.98
57068;BME280;43391;47.448;18.904;2023-05-11T06:42:14;99804.56;;;14.31;59.24
57068;BME280;43391;47.448;18.904;2023-05-11T06:44:39;99814.03;;;14.47;58.41
57068;BME280;43391;47.448;18.904;2023-05-11T06:47:08;99804.63;;;14.44;58.31
57068;BME280;43391;47.448;18.904;2023-05-11T06:49:33;99801.91;;;14.46;58.90
57068;BME280;43391;47.448;18.904;2023-05-11T06:51:59;99798.53;;;14.58;59.67
57068;BME280;43391;47.448;18.904;2023-05-11T06:54:24;99798.31;;;14.61;58.13
57068;BME280;43391;47.448;18.904;2023-05-11T06:56:50;99803.03;;;14.69;57.50
57068;BME280;43391;47.448;18.904;2023-05-11T06:59:15;99792.97;;;14.78;59.09
57068;BME280;43391;47.448;18.904;2023-05-11T07:01:40;99799.09;;;14.91;57.90
57068;BME280;43391;47.448;18.904;2023-05-11T07:04:06;99799.72;;;14.95;56.81
57068;BME280;43391;47.448;18.904;2023-05-11T07:06:31;99795.53;;;14.92;57.06
57068;BME280;43391;47.448;18.904;2023-05-11T07:08:57;99800.44;;;14.97;56.60
57068;BME280;43391;47.448;18.904;2023-05-11T07:11:23;99787.50;;;15.08;58.12
57068;BME280;43391;47.448;18.904;2023-05-11T07:13:49;99797.16;;;15.34;57.49
57068;BME280;43391;47.448;18.904;2023-05-11T07:16:15;99793.63;;;15.48;55.76
57068;BME280;43391;47.448;18.904;2023-05-11T07:18:40;99799.34;;;15.79;55.59
57068;BME280;43391;47.448;18.904;2023-05-11T07:21:05;99794.09;;;15.92;53.01
57068;BME280;43391;47.448;18.904;2023-05-11T07:23:31;99790.22;;;16.11;55.80
57068;BME280;43391;47.448;18.904;2023-05-11T07:25:56;99794.78;;;16.20;51.78
57068;BME280;43391;47.448;18.904;2023-05-11T07:28:22;99792.28;;;16.18;51.36
57068;BME280;43391;47.448;18.904;2023-05-11T07:30:48;99792.38;;;16.17;50.12
57068;BME280;43391;47.448;18.904;2023-05-11T07:33:13;99790.22;;;16.11;50.61
57068;BME280;43391;47.448;18.904;2023-05-11T07:35:38;99791.88;;;16.12;50.92
57068;BME280;43391;47.448;18.904;2023-05-11T07:38:04;99782.97;;;16.14;50.15
57068;BME280;43391;47.448;18.904;2023-05-11T07:40:32;99797.31;;;16.22;49.77
57068;BME280;43391;47.448;18.904;2023-05-11T07:42:57;99786.91;;;16.33;51.16
57068;BME280;43391;47.448;18.904;2023-05-11T07:45:23;99789.63;;;16.56;49.88
57068;BME280;43391;47.448;18.904;2023-05-11T07:47:48;99790.63;;;16.66;49.35
57068;BME280;43391;47.448;18.904;2023-05-11T07:50:13;99789.28;;;16.85;48.99
57068;BME280;43391;47.448;18.904;2023-05-11T07:52:39;99787.41;;;16.98;48.84
57068;BME280;43391;47.448;18.904;2023-05-11T07:55:04;99791.59;;;17.01;48.09
57068;BME280;43391;47.448;18.904;2023-05-11T07:57:30;99789.63;;;17.05;48.64
57068;BME280;43391;47.448;18.904;2023-05-11T07:59:55;99789.09;;;17.24;47.39
57068;BME280;43391;47.448;18.904;2023-05-11T08:02:21;99787.19;;;17.37;47.56
57068;BME280;43391;47.448;18.904;2023-05-11T08:04:46;99792.00;;;17.55;47.10
57068;BME280;43391;47.448;18.904;2023-05-11T08:07:11;99784.13;;;17.66;46.38
57068;BME280;43391;47.448;18.904;2023-05-11T08:09:37;99784.72;;;17.82;45.46
57068;BME280;43391;47.448;18.904;2023-05-11T08:12:02;99785.19;;;17.87;45.11
57068;BME280;43391;47.448;18.904;2023-05-11T08:14:28;99782.81;;;18.06;45.02
57068;BME280;43391;47.448;18.904;2023-05-11T08:16:53;99782.09;;;18.16;44.79
57068;BME280;43391;47.448;18.904;2023-05-11T08:19:19;99772.38;;;18.28;45.04
57068;BME280;43391;47.448;18.904;2023-05-11T08:21:44;99775.81;;;18.40;45.68
57068;BME280;43391;47.448;18.904;2023-05-11T08:24:11;99776.16;;;18.46;44.75
57068;BME280;43391;47.448;18.904;2023-05-11T08:26:36;99773.59;;;18.56;43.42
57068;BME280;43391;47.448;18.904;2023-05-11T08:29:02;99770.91;;;18.46;43.14
57068;BME280;43391;47.448;18.904;2023-05-11T08:31:28;99775.28;;;18.57;44.49
57068;BME280;43391;47.448;18.904;2023-05-11T08:33:54;99771.59;;;18.49;42.68
57068;BME280;43391;47.448;18.904;2023-05-11T08:36:19;99764.59;;;18.38;43.92
57068;BME280;43391;47.448;18.904;2023-05-11T08:38:45;99759.06;;;18.52;43.87
57068;BME280;43391;47.448;18.904;2023-05-11T08:41:11;99757.19;;;18.64;42.79
57068;BME280;43391;47.448;18.904;2023-05-11T08:43:37;99761.81;;;18.72;43.70
57068;BME280;43391;47.448;18.904;2023-05-11T08:46:05;99762.59;;;18.63;42.89
57068;BME280;43391;47.448;18.904;2023-05-11T08:48:34;99747.78;;;18.62;42.18
57068;BME280;43391;47.448;18.904;2023-05-11T08:50:59;99759.28;;;18.82;41.17
57068;BME280;43391;47.448;18.904;2023-05-11T08:53:26;99748.50;;;18.85;41.45
57068;BME280;43391;47.448;18.904;2023-05-11T08:55:53;99750.00;;;18.99;40.66
57068;BME280;43391;47.448;18.904;2023-05-11T08:58:20;99748.41;;;19.08;40.27
57068;BME280;43391;47.448;18.904;2023-05-11T09:00:49;99736.09;;;19.08;40.13
57068;BME280;43391;47.448;18.904;2023-05-11T09:03:18;99737.84;;;19.29;40.52
57068;BME280;43391;47.448;18.904;2023-05-11T09:05:44;99740.13;;;19.34;41.37
57068;BME280;43391;47.448;18.904;2023-05-11T09:08:11;99738.38;;;19.44;41.33
57068;BME280;43391;47.448;18.904;2023-05-11T09:10:37;99732.81;;;19.47;40.08
57068;BME280;43391;47.448;18.904;2023-05-11T09:13:03;99736.09;;;19.39;39.68
57068;BME280;43391;47.448;18.904;2023-05-11T09:15:29;99734.09;;;19.53;39.06
57068;BME280;43391;47.448;18.904;2023-05-11T09:17:54;99733.69;;;19.58;38.28
57068;BME280;43391;47.448;18.904;2023-05-11T09:20:26;99730.69;;;19.62;39.27
57068;BME280;43391;47.448;18.904;2023-05-11T09:22:53;99733.09;;;19.75;40.84
57068;BME280;43391;47.448;18.904;2023-05-11T09:25:19;99715.84;;;20.12;41.57
57068;BME280;43391;47.448;18.904;2023-05-11T09:27:46;99726.69;;;20.29;36.43
57068;BME280;43391;47.448;18.904;2023-05-11T09:30:22;99729.59;;;20.26;37.45
57068;BME280;43391;47.448;18.904;2023-05-11T09:32:52;99730.69;;;20.03;37.90
57068;BME280;43391;47.448;18.904;2023-05-11T09:35:25;99725.00;;;20.28;38.49
57068;BME280;43391;47.448;18.904;2023-05-11T09:38:07;99715.03;;;20.51;38.59
57068;BME280;43391;47.448;18.904;2023-05-11T09:40:36;99720.56;;;20.48;37.99
57068;BME280;43391;47.448;18.904;2023-05-11T09:43:03;99718.22;;;20.25;38.18
57068;BME280;43391;47.448;18.904;2023-05-11T09:45:40;99708.19;;;20.09;37.72
57068;BME280;43391;47.448;18.904;2023-05-11T09:48:22;99708.31;;;19.98;35.33
57068;BME280;43391;47.448;18.904;2023-05-11T09:50:48;99710.75;;;19.70;37.73
57068;BME280;43391;47.448;18.904;2023-05-11T09:53:14;99709.66;;;19.82;40.02
57068;BME280;43391;47.448;18.904;2023-05-11T09:55:54;99710.31;;;20.15;35.14
57068;BME280;43391;47.448;18.904;2023-05-11T09:58:20;99715.16;;;20.20;34.16
57068;BME280;43391;47.448;18.904;2023-05-11T10:00:52;99715.84;;;20.12;34.79
57068;BME280;43391;47.448;18.904;2023-05-11T10:03:18;99708.50;;;20.16;33.57
57068;BME280;43391;47.448;18.904;2023-05-11T10:05:57;99700.63;;;20.26;34.22
57068;BME280;43391;47.448;18.904;2023-05-11T10:08:30;99699.63;;;20.37;33.92
57068;BME280;43391;47.448;18.904;2023-05-11T10:10:56;99697.13;;;20.05;33.70
57068;BME280;43391;47.448;18.904;2023-05-11T10:13:23;99695.06;;;19.68;33.54
57068;BME280;43391;47.448;18.904;2023-05-11T10:15:50;99685.94;;;19.72;34.65
57068;BME280;43391;47.448;18.904;2023-05-11T10:18:16;99692.50;;;19.88;34.52
57068;BME280;43391;47.448;18.904;2023-05-11T10:21:00;99688.25;;;20.26;35.69
57068;BME280;43391;47.448;18.904;2023-05-11T10:23:25;99686.28;;;20.68;34.09
57068;BME280;43391;47.448;18.904;2023-05-11T10:25:54;99686.84;;;20.71;34.47
57068;BME280;43391;47.448;18.904;2023-05-11T10:28:20;99685.19;;;20.61;32.62
57068;BME280;43391;47.448;18.904;2023-05-11T10:30:46;99691.19;;;20.33;33.32
57068;BME280;43391;47.448;18.904;2023-05-11T10:33:12;99685.19;;;20.01;33.80
57068;BME280;43391;47.448;18.904;2023-05-11T10:35:38;99681.00;;;19.99;34.08
57068;BME280;43391;47.448;18.904;2023-05-11T10:38:05;99681.31;;;20.25;34.45
57068;BME280;43391;47.448;18.904;2023-05-11T10:40:37;99684.91;;;20.54;34.17
57068;BME280;43391;47.448;18.904;2023-05-11T10:49:29;99674.63;;;20.01;36.62
57068;BME280;43391;47.448;18.904;2023-05-11T10:52:35;99674.25;;;20.16;35.08
57068;BME280;43391;47.448;18.904;2023-05-11T10:55:21;99663.97;;;20.42;34.83
57068;BME280;43391;47.448;18.904;2023-05-11T11:03:09;99669.63;;;20.87;33.64
57068;BME280;43391;47.448;18.904;2023-05-11T11:05:35;99669.91;;;20.54;33.74
57068;BME280;43391;47.448;18.904;2023-05-11T11:08:03;99667.41;;;20.63;34.58
57068;BME280;43391;47.448;18.904;2023-05-11T11:13:06;99662.03;;;20.25;35.01
57068;BME280;43391;47.448;18.904;2023-05-11T11:18:29;99657.19;;;20.30;33.87
57068;BME280;43391;47.448;18.904;2023-05-11T11:20:57;99664.81;;;20.33;33.64
57068;BME280;43391;47.448;18.904;2023-05-11T11:26:03;99645.47;;;19.83;33.81
57068;BME280;43391;47.448;18.904;2023-05-11T11:33:52;99638.03;;;20.08;34.60
57068;BME280;43391;47.448;18.904;2023-05-11T11:45:26;99638.94;;;20.86;33.76
57068;BME280;43391;47.448;18.904;2023-05-11T11:50:30;99643.78;;;21.85;32.77
57068;BME280;43391;47.448;18.904;2023-05-11T11:52:55;99631.84;;;22.17;31.10
57068;BME280;43391;47.448;18.904;2023-05-11T11:55:45;99642.63;;;22.24;30.58
57068;BME280;43391;47.448;18.904;2023-05-11T11:58:11;99647.31;;;22.12;30.57
57068;BME280;43391;47.448;18.904;2023-05-11T12:00:36;99647.41;;;22.02;30.76
57068;BME280;43391;47.448;18.904;2023-05-11T12:03:03;99634.00;;;22.22;30.32
57068;BME280;43391;47.448;18.904;2023-05-11T12:05:28;99643.19;;;22.54;30.32
57068;BME280;43391;47.448;18.904;2023-05-11T12:07:56;99640.00;;;22.50;29.20
57068;BME280;43391;47.448;18.904;2023-05-11T12:10:23;99635.00;;;22.21;30.58
57068;BME280;43391;47.448;18.904;2023-05-11T12:12:50;99621.19;;;21.90;30.54
57068;BME280;43391;47.448;18.904;2023-05-11T12:15:29;99622.16;;;22.08;30.56
57068;BME280;43391;47.448;18.904;2023-05-11T12:17:55;99629.47;;;22.32;30.41
57068;BME280;43391;47.448;18.904;2023-05-11T12:20:21;99621.66;;;22.04;29.96
57068;BME280;43391;47.448;18.904;2023-05-11T12:22:47;99617.78;;;21.80;29.65
57068;BME280;43391;47.448;18.904;2023-05-11T12:25:15;99613.69;;;21.68;30.54
57068;BME280;43391;47.448;18.904;2023-05-11T12:27:55;99619.63;;;21.98;30.39
57068;BME280;43391;47.448;18.904;2023-05-11T12:30:28;99611.75;;;22.06;30.34
57068;BME280;43391;47.448;18.904;2023-05-11T12:32:55;99613.34;;;21.99;29.19
57068;BME280;43391;47.448;18.904;2023-05-11T12:35:27;99612.72;;;22.05;29.83
57068;BME280;43391;47.448;18.904;2023-05-11T12:37:53;99602.09;;;21.97;29.47
57068;BME280;43391;47.448;18.904;2023-05-11T12:40:19;99593.25;;;22.06;29.30
57068;BME280;43391;47.448;18.904;2023-05-11T12:42:55;99596.34;;;22.01;30.40
57068;BME280;43391;47.448;18.904;2023-05-11T12:45:21;99601.25;;;21.96;31.30
57068;BME280;43391;47.448;18.904;2023-05-11T12:47:50;99593.06;;;21.99;31.65
57068;BME280;43391;47.448;18.904;2023-05-11T12:50:16;99575.72;;;21.69;32.62
57068;BME280;43391;47.448;18.904;2023-05-11T12:52:42;99573.34;;;21.94;31.40
57068;BME280;43391;47.448;18.904;2023-05-11T12:55:08;99594.13;;;21.60;30.41
57068;BME280;43391;47.448;18.904;2023-05-11T12:57:36;99585.88;;;21.45;30.44
57068;BME280;43391;47.448;18.904;2023-05-11T13:00:12;99587.78;;;21.81;31.71
57068;BME280;43391;47.448;18.904;2023-05-11T13:02:49;99583.63;;;22.23;31.93
57068;BME280;43391;47.448;18.904;2023-05-11T13:05:16;99581.84;;;22.50;30.80
57068;BME280;43391;47.448;18.904;2023-05-11T13:07:43;99581.56;;;22.53;30.04
57068;BME280;43391;47.448;18.904;2023-05-11T13:10:11;99585.47;;;22.04;30.29
57068;BME280;43391;47.448;18.904;2023-05-11T13:12:47;99581.78;;;21.79;30.11
57068;BME280;43391;47.448;18.904;2023-05-11T13:15:13;99582.75;;;21.60;30.79
57068;BME280;43391;47.448;18.904;2023-05-11T13:17:40;99577.72;;;21.38;30.71
57068;BME280;43391;47.448;18.904;2023-05-11T13:22:41;99571.97;;;21.25;31.31
57068;BME280;43391;47.448;18.904;2023-05-11T13:25:07;99564.63;;;21.65;30.96
57068;BME280;43391;47.448;18.904;2023-05-11T13:27:35;99571.91;;;21.81;30.65
57068;BME280;43391;47.448;18.904;2023-05-11T13:30:04;99562.78;;;21.94;30.83
57068;BME280;43391;47.448;18.904;2023-05-11T13:32:30;99556.97;;;21.72;31.23
57068;BME280;43391;47.448;18.904;2023-05-11T13:34:55;99570.38;;;21.60;30.88
57068;BME280;43391;47.448;18.904;2023-05-11T13:37:21;99564.38;;;21.40;30.78
57068;BME280;43391;47.448;18.904;2023-05-11T13:39:46;99552.03;;;21.59;30.93